createdAt,value
2022-12-11T00:00:54.114Z,64.66
2022-12-11T00:03:20.827Z,64.34
2022-12-11T00:05:47.395Z,64.53
2022-12-11T00:08:14.262Z,65.12
2022-12-11T00:10:48.025Z,65.86
2022-12-11T00:13:14.564Z,65.97
2022-12-11T00:15:41.075Z,64.70
2022-12-11T00:18:12.033Z,64.93
2022-12-11T00:20:38.514Z,65.07
2022-12-11T00:23:05.500Z,65.22
2022-12-11T00:25:32.010Z,64.97
2022-12-11T00:27:58.530Z,64.50
2022-12-11T00:30:25.017Z,64.75
2022-12-11T00:32:51.911Z,65.14
2022-12-11T00:35:18.445Z,64.54
2022-12-11T00:37:44.974Z,66.66
2022-12-11T00:40:11.601Z,65.29
2022-12-11T00:42:38.277Z,65.69
2022-12-11T00:45:04.963Z,65.93
2022-12-11T00:47:31.495Z,65.37
2022-12-11T00:49:58.044Z,65.80
2022-12-11T00:52:24.726Z,64.95
2022-12-11T00:54:51.209Z,64.86
2022-12-11T00:57:17.715Z,64.96
2022-12-11T00:59:44.272Z,64.34
2022-12-11T01:02:10.777Z,64.00
2022-12-11T01:04:37.482Z,64.09
2022-12-11T01:07:04.298Z,64.24
2022-12-11T01:09:49.192Z,64.05
2022-12-11T01:12:15.732Z,64.16
2022-12-11T01:14:42.234Z,64.40
2022-12-11T01:17:08.729Z,65.45
2022-12-11T01:19:35.267Z,64.28
2022-12-11T01:22:01.733Z,64.12
2022-12-11T01:24:28.507Z,65.12
2022-12-11T01:26:54.973Z,65.17
2022-12-11T01:29:21.481Z,64.39
2022-12-11T01:31:47.980Z,64.65
2022-12-11T01:34:14.490Z,64.39
2022-12-11T01:36:40.972Z,65.11
2022-12-11T01:39:07.518Z,63.82
2022-12-11T01:41:34.049Z,63.48
2022-12-11T01:44:21.207Z,63.26
2022-12-11T01:46:47.937Z,63.16
2022-12-11T01:49:15.582Z,63.56
2022-12-11T01:51:55.015Z,63.35
2022-12-11T01:54:22.940Z,64.18
2022-12-11T01:56:51.978Z,63.84
2022-12-11T01:59:21.420Z,64.34
2022-12-11T02:01:52.885Z,64.32
2022-12-11T02:04:20.014Z,65.13
2022-12-11T02:06:48.961Z,64.95
2022-12-11T02:09:18.373Z,64.76
2022-12-11T02:12:00.096Z,64.71
2022-12-11T02:14:44.246Z,65.29
2022-12-11T02:17:14.541Z,65.09
2022-12-11T02:20:07.239Z,64.63
2022-12-11T02:22:38.775Z,65.87
2022-12-11T02:25:16.890Z,65.15
2022-12-11T02:27:56.394Z,64.21
2022-12-11T02:30:23.677Z,64.73
2022-12-11T02:32:56.883Z,64.48
2022-12-11T02:35:31.423Z,64.54
2022-12-11T02:38:02.667Z,64.94
2022-12-11T02:40:31.826Z,65.36
2022-12-11T02:43:01.345Z,64.89
2022-12-11T02:45:28.645Z,65.22
2022-12-11T02:47:57.518Z,63.96
2022-12-11T02:50:25.102Z,64.03
2022-12-11T02:52:54.238Z,64.75
2022-12-11T02:55:20.796Z,64.12
2022-12-11T02:57:53.883Z,64.20
2022-12-11T03:00:21.827Z,64.05
2022-12-11T03:02:48.975Z,64.10
2022-12-11T03:05:15.806Z,63.63
2022-12-11T03:07:44.254Z,64.56
2022-12-11T03:10:14.609Z,65.04
2022-12-11T03:12:43.499Z,64.31
2022-12-11T03:15:14.600Z,64.01
2022-12-11T03:17:54.831Z,64.29
2022-12-11T03:20:30.826Z,64.98
2022-12-11T03:23:21.571Z,63.83
2022-12-11T03:25:57.342Z,64.38
2022-12-11T03:28:29.576Z,63.38
2022-12-11T03:30:56.507Z,64.23
2022-12-11T03:33:30.951Z,63.43
2022-12-11T03:36:04.085Z,65.05
2022-12-11T03:38:42.715Z,64.90
2022-12-11T03:41:10.246Z,65.11
2022-12-11T03:43:37.497Z,64.98
2022-12-11T03:46:04.731Z,65.52
2022-12-11T03:48:33.959Z,66.00
2022-12-11T03:51:02.535Z,66.25
2022-12-11T03:53:29.229Z,66.61
2022-12-11T03:55:58.204Z,66.32
2022-12-11T03:58:24.808Z,66.56
2022-12-11T04:00:51.319Z,67.31
2022-12-11T04:03:17.975Z,66.27
2022-12-11T04:05:49.636Z,66.66
2022-12-11T04:08:17.989Z,64.94
2022-12-11T04:10:44.567Z,64.98
2022-12-11T04:13:11.089Z,65.44
2022-12-11T04:15:38.249Z,65.73
2022-12-11T04:18:40.850Z,64.84
2022-12-11T04:21:27.549Z,65.07
2022-12-11T04:24:12.502Z,64.75
2022-12-11T04:26:39.133Z,65.11
2022-12-11T04:29:05.722Z,65.13
2022-12-11T04:31:32.644Z,65.44
2022-12-11T04:33:59.180Z,65.58
2022-12-11T04:36:25.687Z,65.18
2022-12-11T04:38:52.186Z,65.62
2022-12-11T04:41:18.882Z,65.83
2022-12-11T04:43:45.540Z,65.96
2022-12-11T04:46:21.930Z,65.43
2022-12-11T04:48:52.532Z,65.53
2022-12-11T04:51:23.539Z,65.38
2022-12-11T04:53:50.030Z,65.65
2022-12-11T04:56:16.887Z,64.98
2022-12-11T04:58:44.202Z,65.16
2022-12-11T05:01:16.635Z,65.78
2022-12-11T05:03:43.381Z,65.19
2022-12-11T05:06:10.325Z,65.04
2022-12-11T05:08:38.443Z,65.22
2022-12-11T05:11:06.851Z,65.91
2022-12-11T05:13:33.392Z,66.01
2022-12-11T05:16:00.009Z,66.06
2022-12-11T05:18:26.622Z,65.39
2022-12-11T05:21:01.175Z,64.92
2022-12-11T05:23:27.754Z,65.20
2022-12-11T05:25:55.590Z,64.44
2022-12-11T05:28:23.274Z,64.90
2022-12-11T05:30:57.992Z,66.15
2022-12-11T05:33:25.298Z,66.59
2022-12-11T05:35:52.137Z,66.46
2022-12-11T05:38:18.942Z,65.69
2022-12-11T05:40:45.443Z,65.38
2022-12-11T05:43:11.968Z,65.74
2022-12-11T05:45:38.821Z,65.73
2022-12-11T05:48:05.501Z,65.98
2022-12-11T05:50:32.926Z,66.34
2022-12-11T05:53:00.014Z,66.17
2022-12-11T05:55:26.546Z,66.02
2022-12-11T05:57:53.062Z,66.70
2022-12-11T06:00:19.615Z,66.52
2022-12-11T06:02:46.150Z,66.50
2022-12-11T06:05:17.671Z,66.22
2022-12-11T06:07:50.059Z,65.90
2022-12-11T06:10:16.838Z,65.68
2022-12-11T06:12:43.463Z,65.33
2022-12-11T06:15:19.185Z,65.68
2022-12-11T06:17:45.679Z,64.60
2022-12-11T06:20:12.205Z,65.42
2022-12-11T06:22:38.891Z,65.75
2022-12-11T06:25:06.285Z,65.24
2022-12-11T06:27:40.597Z,66.01
2022-12-11T06:30:19.075Z,65.63
2022-12-11T06:32:53.473Z,65.91
2022-12-11T06:35:20.263Z,66.68
2022-12-11T06:37:49.772Z,66.20
2022-12-11T06:40:16.442Z,66.30
2022-12-11T06:42:43.019Z,65.91
2022-12-11T06:45:10.507Z,66.94
2022-12-11T06:47:37.311Z,66.15
2022-12-11T06:50:04.053Z,65.93
2022-12-11T06:52:34.221Z,65.92
2022-12-11T06:55:07.012Z,67.04
2022-12-11T06:57:37.005Z,67.76
2022-12-11T07:00:04.283Z,67.90
2022-12-11T07:02:30.842Z,67.71
2022-12-11T07:04:57.377Z,68.70
2022-12-11T07:07:23.911Z,68.44
2022-12-11T07:09:51.608Z,67.51
2022-12-11T07:12:18.211Z,67.07
2022-12-11T07:14:44.822Z,67.00
2022-12-11T07:17:11.385Z,66.92
2022-12-11T07:19:37.904Z,66.66
2022-12-11T07:22:04.410Z,66.28
2022-12-11T07:24:31.063Z,66.69
2022-12-11T07:26:57.733Z,67.17
2022-12-11T07:29:24.251Z,67.97
2022-12-11T07:31:50.894Z,67.59
2022-12-11T07:34:17.413Z,66.76
2022-12-11T07:36:43.997Z,66.91
2022-12-11T07:39:12.116Z,66.69
2022-12-11T07:41:39.466Z,65.79
2022-12-11T07:44:10.411Z,66.40
2022-12-11T07:46:37.655Z,66.77
2022-12-11T07:49:05.961Z,67.51
2022-12-11T07:51:36.342Z,67.50
2022-12-11T07:54:16.360Z,67.38
2022-12-11T07:56:51.160Z,66.62
2022-12-11T07:59:20.980Z,66.56
2022-12-11T08:01:49.244Z,65.74
2022-12-11T08:04:15.977Z,65.27
2022-12-11T08:06:43.177Z,65.84
2022-12-11T08:09:17.486Z,65.64
2022-12-11T08:11:49.582Z,66.50
2022-12-11T08:14:16.335Z,66.60
2022-12-11T08:16:44.185Z,65.58
2022-12-11T08:19:13.932Z,65.50
2022-12-11T08:21:40.920Z,65.09
2022-12-11T08:24:08.392Z,66.68
2022-12-11T08:26:34.919Z,65.63
2022-12-11T08:29:02.562Z,65.01
2022-12-11T08:31:29.694Z,64.40
2022-12-11T08:33:56.963Z,64.96
2022-12-11T08:36:23.756Z,65.39
2022-12-11T08:38:50.804Z,64.59
2022-12-11T08:41:36.219Z,64.60
2022-12-11T08:44:05.962Z,64.43
2022-12-11T08:46:32.815Z,65.59
2022-12-11T08:48:59.809Z,65.31
2022-12-11T08:51:27.935Z,64.85
2022-12-11T08:53:56.122Z,65.23
2022-12-11T08:56:23.726Z,64.86
2022-12-11T08:58:58.478Z,64.54
2022-12-11T09:01:26.471Z,64.42
2022-12-11T09:03:54.815Z,64.10
2022-12-11T09:06:23.544Z,63.93
2022-12-11T09:08:52.993Z,63.41
2022-12-11T09:11:22.872Z,63.69
2022-12-11T09:13:49.529Z,63.21
2022-12-11T09:16:17.718Z,63.38
2022-12-11T09:18:49.287Z,63.42
2022-12-11T09:21:18.358Z,62.97
2022-12-11T09:23:44.853Z,62.71
2022-12-11T09:26:14.428Z,62.62
2022-12-11T09:28:46.324Z,63.56
2022-12-11T09:31:16.136Z,63.04
2022-12-11T09:33:42.833Z,63.05
2022-12-11T09:36:10.038Z,63.65
2022-12-11T09:38:36.629Z,63.19
2022-12-11T09:41:22.396Z,63.64
2022-12-11T09:43:54.350Z,62.66
2022-12-11T09:46:24.439Z,62.79
2022-12-11T09:48:53.441Z,62.49
2022-12-11T09:51:19.947Z,62.03
2022-12-11T09:53:46.642Z,62.98
2022-12-11T09:56:29.743Z,63.09
2022-12-11T09:59:08.066Z,62.56
2022-12-11T10:01:40.789Z,62.21
2022-12-11T10:04:35.505Z,62.78
2022-12-11T10:07:14.406Z,62.38
2022-12-11T10:09:44.156Z,63.20
2022-12-11T10:12:26.239Z,63.45
2022-12-11T10:15:16.890Z,62.89
2022-12-11T10:17:47.438Z,62.88
2022-12-11T10:20:28.591Z,63.67
2022-12-11T10:22:56.748Z,62.69
2022-12-11T10:25:32.326Z,62.72
2022-12-11T10:28:00.544Z,62.17
2022-12-11T10:30:34.732Z,62.63
2022-12-11T10:33:10.927Z,61.59
2022-12-11T10:35:46.308Z,61.59
2022-12-11T10:38:21.427Z,61.08
2022-12-11T10:40:52.221Z,61.15
2022-12-11T10:43:18.877Z,60.63
2022-12-11T10:45:53.207Z,60.79
2022-12-11T10:48:20.670Z,60.31
2022-12-11T10:50:57.549Z,60.87
2022-12-11T10:53:24.184Z,60.93
2022-12-11T10:55:50.739Z,61.41
2022-12-11T10:58:20.270Z,59.67
2022-12-11T11:00:58.495Z,59.00
2022-12-11T11:03:27.617Z,58.84
2022-12-11T11:06:21.571Z,59.17
2022-12-11T11:08:50.977Z,59.16
2022-12-11T11:11:33.934Z,59.21
2022-12-11T11:14:05.939Z,58.04
2022-12-11T11:16:36.207Z,58.40
2022-12-11T11:19:02.783Z,57.80
2022-12-11T11:21:30.300Z,57.56
2022-12-11T11:23:56.865Z,58.37
2022-12-11T11:26:23.635Z,58.94
2022-12-11T11:28:55.629Z,58.92
2022-12-11T11:31:31.459Z,58.89
2022-12-11T11:34:00.299Z,59.61
2022-12-11T11:36:28.635Z,59.46
2022-12-11T11:39:07.380Z,58.98
2022-12-11T11:41:58.669Z,60.76
2022-12-11T11:44:30.019Z,60.17
2022-12-11T11:47:10.616Z,59.83
2022-12-11T11:49:55.435Z,60.21
2022-12-11T11:52:28.532Z,59.41
2022-12-11T11:55:21.659Z,58.21
2022-12-11T11:57:55.833Z,58.26
2022-12-11T12:00:31.918Z,56.53
2022-12-11T12:03:04.173Z,57.16
2022-12-11T12:05:50.591Z,57.71
2022-12-11T12:08:33.293Z,58.11
2022-12-11T12:11:10.771Z,56.89
2022-12-11T12:14:12.849Z,57.32
2022-12-11T12:17:26.378Z,57.95
2022-12-11T12:19:53.270Z,58.49
2022-12-11T12:22:35.550Z,58.02
2022-12-11T12:25:24.932Z,58.94
2022-12-11T12:28:00.771Z,58.72
2022-12-11T12:30:32.310Z,59.14
2022-12-11T12:33:04.965Z,58.50
2022-12-11T12:35:36.932Z,58.74
2022-12-11T12:38:22.743Z,60.37
2022-12-11T12:41:04.605Z,59.17
2022-12-11T12:43:53.178Z,59.08
2022-12-11T12:46:27.650Z,58.51
2022-12-11T12:48:55.514Z,58.86
2022-12-11T12:51:22.094Z,59.13
2022-12-11T12:53:59.709Z,59.30
2022-12-11T12:56:28.023Z,59.07
2022-12-11T12:58:59.072Z,58.96
2022-12-11T13:01:27.795Z,59.28
2022-12-11T13:04:03.034Z,59.60
2022-12-11T13:06:41.104Z,59.39
2022-12-11T13:09:17.420Z,60.12
2022-12-11T13:11:45.769Z,60.25
2022-12-11T13:14:15.427Z,61.19
2022-12-11T13:16:43.884Z,61.08
2022-12-11T13:19:42.397Z,61.23
2022-12-11T13:22:12.257Z,61.47
2022-12-11T13:24:48.902Z,61.85
2022-12-11T13:27:29.642Z,62.24
2022-12-11T13:30:23.184Z,61.43
2022-12-11T13:33:14.890Z,61.90
2022-12-11T13:35:41.611Z,62.68
2022-12-11T13:38:15.849Z,62.47
2022-12-11T13:40:44.498Z,60.96
2022-12-11T13:43:28.882Z,60.96
2022-12-11T13:46:03.907Z,60.57
2022-12-11T13:48:34.204Z,61.06
2022-12-11T13:51:01.592Z,60.55
2022-12-11T13:53:28.410Z,60.04
2022-12-11T13:56:00.585Z,59.91
2022-12-11T13:58:28.230Z,59.66
2022-12-11T14:01:11.496Z,60.57
2022-12-11T14:03:52.837Z,60.28
2022-12-11T14:06:19.259Z,59.91
2022-12-11T14:08:48.673Z,60.12
2022-12-11T14:11:27.755Z,60.00
2022-12-11T14:13:55.747Z,60.42
2022-12-11T14:16:24.388Z,60.16
2022-12-11T14:18:51.721Z,60.73
2022-12-11T14:21:20.344Z,59.74
2022-12-11T14:23:58.021Z,59.51
2022-12-11T14:26:27.157Z,59.46
2022-12-11T14:28:53.949Z,59.42
2022-12-11T14:31:31.038Z,60.06
2022-12-11T14:34:02.158Z,60.58
2022-12-11T14:36:29.409Z,61.41
2022-12-11T14:38:59.725Z,61.84
2022-12-11T14:41:36.780Z,61.54
2022-12-11T14:44:05.334Z,61.66
2022-12-11T14:46:39.146Z,61.79
2022-12-11T14:49:12.844Z,61.60
2022-12-11T14:51:40.775Z,62.75
2022-12-11T14:54:07.905Z,62.72
2022-12-11T14:56:34.855Z,62.89
2022-12-11T14:59:06.719Z,62.58
2022-12-11T15:01:35.922Z,63.21
2022-12-11T15:04:14.635Z,62.73
2022-12-11T15:06:46.903Z,62.85
2022-12-11T15:09:28.841Z,63.24
2022-12-11T15:11:57.554Z,63.16
2022-12-11T15:14:25.562Z,64.04
2022-12-11T15:16:54.782Z,63.30
2022-12-11T15:19:31.682Z,63.03
2022-12-11T15:22:05.845Z,63.06
2022-12-11T15:24:38.290Z,62.77
2022-12-11T15:27:04.865Z,63.27
2022-12-11T15:29:39.670Z,63.69
2022-12-11T15:32:09.168Z,63.18
2022-12-11T15:34:43.048Z,63.21
2022-12-11T15:37:18.610Z,62.98
2022-12-11T15:39:45.134Z,63.24
2022-12-11T15:42:14.817Z,63.41
2022-12-11T15:44:41.975Z,63.32
2022-12-11T15:47:13.515Z,64.18
2022-12-11T15:49:40.033Z,64.13
2022-12-11T15:52:06.516Z,64.47
2022-12-11T15:54:33.161Z,64.62
2022-12-11T15:57:01.769Z,64.74
2022-12-11T15:59:28.268Z,64.47
2022-12-11T16:01:54.806Z,64.81
2022-12-11T16:04:21.381Z,64.72
2022-12-11T16:06:47.862Z,65.40
2022-12-11T16:09:14.409Z,65.07
2022-12-11T16:11:40.899Z,64.84
2022-12-11T16:14:07.380Z,64.71
2022-12-11T16:16:33.895Z,64.31
2022-12-11T16:19:00.748Z,65.00
2022-12-11T16:21:27.275Z,64.07
2022-12-11T16:23:53.809Z,63.50
2022-12-11T16:26:20.377Z,64.45
2022-12-11T16:28:46.886Z,65.60
2022-12-11T16:31:14.800Z,65.30
2022-12-11T16:33:41.698Z,65.05
2022-12-11T16:36:21.932Z,65.08
2022-12-11T16:38:53.570Z,64.73
2022-12-11T16:41:22.818Z,64.30
2022-12-11T16:43:49.717Z,63.88
2022-12-11T16:46:20.350Z,63.42
2022-12-11T16:48:47.050Z,64.89
2022-12-11T16:51:13.879Z,65.07
2022-12-11T16:53:40.867Z,63.72
2022-12-11T16:56:08.320Z,64.46
2022-12-11T16:58:35.275Z,64.55
2022-12-11T17:01:02.364Z,65.27
2022-12-11T17:03:30.234Z,64.00
2022-12-11T17:05:57.712Z,64.28
2022-12-11T17:08:24.749Z,64.30
2022-12-11T17:10:52.175Z,64.30
2022-12-11T17:13:18.819Z,64.75
2022-12-11T17:15:45.683Z,63.72
2022-12-11T17:18:12.402Z,63.40
2022-12-11T17:20:42.818Z,64.19
2022-12-11T17:23:11.015Z,63.94
2022-12-11T17:25:44.799Z,64.25
2022-12-11T17:28:13.622Z,64.81
2022-12-11T17:30:44.157Z,64.77
2022-12-11T17:33:11.704Z,65.63
2022-12-11T17:35:38.656Z,64.47
2022-12-11T17:38:05.315Z,65.93
2022-12-11T17:40:32.087Z,66.22
2022-12-11T17:42:59.278Z,66.58
2022-12-11T17:45:25.827Z,65.79
2022-12-11T17:47:52.310Z,66.22
2022-12-11T17:50:19.416Z,64.97
2022-12-11T17:52:45.888Z,64.12
2022-12-11T17:55:12.778Z,63.29
2022-12-11T17:57:39.546Z,63.41
2022-12-11T18:00:06.849Z,63.41
2022-12-11T18:02:38.892Z,64.24
2022-12-11T18:05:06.175Z,63.67
2022-12-11T18:07:32.666Z,64.26
2022-12-11T18:09:59.229Z,64.03
2022-12-11T18:12:25.799Z,64.69
2022-12-11T18:14:52.353Z,65.04
2022-12-11T18:17:18.842Z,65.90
2022-12-11T18:19:46.324Z,65.05
2022-12-11T18:22:12.908Z,65.59
2022-12-11T18:24:39.421Z,65.32
2022-12-11T18:27:10.168Z,65.16
2022-12-11T18:29:37.072Z,65.58
2022-12-11T18:32:03.845Z,66.89
2022-12-11T18:34:30.398Z,65.77
2022-12-11T18:36:56.932Z,65.09
2022-12-11T18:39:23.845Z,65.40
2022-12-11T18:42:09.737Z,65.44
2022-12-11T18:44:37.633Z,66.52
2022-12-11T18:47:04.221Z,66.03
2022-12-11T18:49:31.008Z,65.46
2022-12-11T18:51:57.562Z,66.07
2022-12-11T18:54:24.086Z,66.16
2022-12-11T18:56:50.563Z,66.35
2022-12-11T18:59:18.238Z,66.50
2022-12-11T19:01:44.773Z,66.87
2022-12-11T19:04:11.299Z,67.13
2022-12-11T19:06:37.925Z,66.49
2022-12-11T19:09:06.803Z,66.53
2022-12-11T19:11:34.228Z,66.86
2022-12-11T19:14:00.975Z,66.17
2022-12-11T19:16:30.020Z,66.72
2022-12-11T19:19:01.700Z,65.70
2022-12-11T19:21:30.129Z,66.47
2022-12-11T19:23:56.644Z,67.03
2022-12-11T19:26:23.947Z,66.94
2022-12-11T19:28:51.349Z,66.76
2022-12-11T19:31:21.385Z,66.46
2022-12-11T19:33:48.123Z,65.30
2022-12-11T19:36:20.791Z,65.93
2022-12-11T19:38:47.800Z,66.28
2022-12-11T19:41:23.501Z,65.97
2022-12-11T19:43:50.836Z,65.45
2022-12-11T19:46:18.798Z,66.16
2022-12-11T19:48:45.407Z,66.40
2022-12-11T19:51:17.375Z,66.46
2022-12-11T19:53:45.630Z,65.97
2022-12-11T19:56:12.805Z,66.34
2022-12-11T19:58:40.545Z,65.89
2022-12-11T20:01:07.466Z,65.42
2022-12-11T20:03:35.039Z,66.64
2022-12-11T20:06:07.217Z,67.28
2022-12-11T20:08:49.484Z,68.07
2022-12-11T20:11:18.620Z,67.42
2022-12-11T20:13:46.705Z,67.75
2022-12-11T20:16:13.937Z,66.31
2022-12-11T20:18:40.603Z,67.26
2022-12-11T20:21:09.417Z,67.33
2022-12-11T20:23:36.589Z,66.13
2022-12-11T20:26:08.400Z,67.31
2022-12-11T20:28:35.354Z,67.65
2022-12-11T20:31:07.223Z,67.13
2022-12-11T20:33:33.844Z,65.17
2022-12-11T20:36:00.321Z,65.05
2022-12-11T20:38:31.258Z,65.89
2022-12-11T20:41:00.744Z,66.39
2022-12-11T20:43:27.298Z,65.59
2022-12-11T20:45:53.913Z,65.59
2022-12-11T20:48:20.458Z,65.60
2022-12-11T20:50:47.001Z,66.53
2022-12-11T20:53:13.525Z,66.83
2022-12-11T20:55:41.349Z,66.28
2022-12-11T20:58:08.859Z,64.81
2022-12-11T21:00:39.437Z,64.83
2022-12-11T21:03:06.385Z,64.20
2022-12-11T21:05:32.967Z,64.01
2022-12-11T21:07:59.582Z,64.41
2022-12-11T21:10:26.141Z,65.33
2022-12-11T21:12:52.608Z,64.75
2022-12-11T21:15:19.124Z,64.03
2022-12-11T21:17:45.719Z,64.31
2022-12-11T21:20:12.328Z,64.08
2022-12-11T21:22:38.814Z,64.83
2022-12-11T21:25:05.773Z,64.74
2022-12-11T21:27:32.265Z,64.41
2022-12-11T21:29:58.829Z,65.13
2022-12-11T21:32:25.527Z,64.99
2022-12-11T21:34:52.018Z,64.38
2022-12-11T21:37:18.651Z,63.86
2022-12-11T21:39:45.228Z,64.71
2022-12-11T21:42:11.754Z,64.26
2022-12-11T21:45:37.138Z,64.34
2022-12-11T21:47:24.908Z,64.20
2022-12-11T21:49:51.397Z,63.49
2022-12-11T21:52:17.909Z,63.75
2022-12-11T21:54:44.388Z,63.34
2022-12-11T21:57:10.892Z,62.99
2022-12-11T21:59:37.402Z,63.57
2022-12-11T22:02:03.936Z,63.45
2022-12-11T22:04:30.515Z,63.90
2022-12-11T22:06:57.012Z,63.92
2022-12-11T22:09:23.825Z,63.45
2022-12-11T22:11:55.158Z,63.48
2022-12-11T22:14:24.809Z,63.38
2022-12-11T22:16:54.430Z,62.69
2022-12-11T22:19:21.388Z,63.89
2022-12-11T22:21:48.100Z,63.79
2022-12-11T22:24:15.181Z,63.37
2022-12-11T22:26:41.919Z,63.80
2022-12-11T22:29:08.979Z,64.51
2022-12-11T22:31:38.430Z,63.71
2022-12-11T22:34:05.485Z,63.94
2022-12-11T22:36:32.272Z,62.44
2022-12-11T22:39:00.304Z,62.05
2022-12-11T22:41:31.926Z,62.26
2022-12-11T22:43:59.136Z,62.65
2022-12-11T22:46:28.756Z,63.36
2022-12-11T22:48:55.538Z,62.85
2022-12-11T22:51:22.788Z,63.09
2022-12-11T22:53:49.410Z,61.67
2022-12-11T22:56:16.151Z,61.77
2022-12-11T22:58:42.686Z,61.19
2022-12-11T23:01:12.059Z,61.93
2022-12-11T23:03:38.985Z,62.47
2022-12-11T23:06:08.110Z,62.07
2022-12-11T23:08:35.562Z,62.74
2022-12-11T23:11:02.792Z,62.37
2022-12-11T23:13:29.330Z,62.52
2022-12-11T23:15:55.935Z,61.59
2022-12-11T23:18:22.425Z,61.21
2022-12-11T23:20:49.364Z,61.43
2022-12-11T23:23:19.025Z,61.67
2022-12-11T23:25:51.455Z,61.95
2022-12-11T23:28:18.137Z,63.34
2022-12-11T23:30:45.138Z,62.93
2022-12-11T23:33:12.134Z,63.47
2022-12-11T23:35:38.919Z,63.20
2022-12-11T23:38:05.478Z,63.95
2022-12-11T23:40:32.870Z,63.36
2022-12-11T23:42:59.362Z,63.39
2022-12-11T23:45:25.885Z,64.36
2022-12-11T23:47:52.346Z,63.74
2022-12-11T23:50:19.244Z,63.22
2022-12-11T23:52:45.720Z,63.89
2022-12-11T23:55:12.476Z,63.28
2022-12-11T23:57:39.091Z,63.63
